Time;durP1;ratioP1;P1;durP2;ratioP2;P2;SDS_P1;SDS_P2;PMS_P1;PMS_P2;Temp;Humidity;BMP_temperature;BMP_pressure;BME280_temperature;BME280_humidity;BME280_pressure;Samples;Min_cycle;Max_cycle;Signal;HPM_P1;HPM_P2
2022/06/25 00:00:25;;;;;;;;;;;25.50;44.00;;;;;;8464819;28;19920;-41
2022/06/25 00:08:45;;;;;;;;;;;25.50;44.00;;;;;;8465039;28;19915;-41
2022/06/25 00:12:46;;;;;;;;;;;25.50;44.00;;;;;;8464943;28;19941;-41
2022/06/25 00:16:46;;;;;;;;;;;25.50;44.00;;;;;;8463986;28;19954;-41
2022/06/25 00:20:47;;;;;;;;;;;25.40;44.00;;;;;;8464162;28;19927;-41
2022/06/25 00:24:47;;;;;;;;;;;25.40;44.00;;;;;;8464032;28;19915;-41
2022/06/25 00:28:48;;;;;;;;;;;25.40;44.00;;;;;;8463789;28;20357;-41
2022/06/25 00:32:48;;;;;;;;;;;25.40;44.00;;;;;;8464276;28;19922;-41
2022/06/25 00:36:49;;;;;;;;;;;25.40;44.00;;;;;;8463614;28;19938;-41
2022/06/25 00:40:49;;;;;;;;;;;25.40;44.00;;;;;;8463276;28;19993;-41
2022/06/25 00:44:52;;;;;;;;;;;25.40;44.00;;;;;;8463960;28;19907;-41
2022/06/25 00:48:52;;;;;;;;;;;25.40;44.00;;;;;;8463824;28;20351;-41
2022/06/25 00:52:55;;;;;;;;;;;25.40;44.00;;;;;;8463222;28;19912;-41
2022/06/25 00:56:56;;;;;;;;;;;25.40;44.00;;;;;;8462973;28;20264;-41
2022/06/25 01:00:57;;;;;;;;;;;25.40;44.00;;;;;;8463210;28;19994;-41
2022/06/25 01:04:58;;;;;;;;;;;25.40;44.00;;;;;;8462982;28;19988;-41
2022/06/25 01:08:58;;;;;;;;;;;25.40;44.00;;;;;;8463394;28;19918;-41
2022/06/25 01:12:59;;;;;;;;;;;25.40;44.00;;;;;;8462522;28;19938;-41
2022/06/25 01:17:03;;;;;;;;;;;25.30;44.00;;;;;;8462841;28;20371;-39
2022/06/25 01:21:04;;;;;;;;;;;25.40;44.00;;;;;;8463122;28;19920;-41
2022/06/25 01:25:09;;;;;;;;;;;25.30;44.00;;;;;;8462976;28;19923;-41
2022/06/25 01:29:09;;;;;;;;;;;25.30;44.00;;;;;;8462698;28;19908;-41
2022/06/25 01:33:10;;;;;;;;;;;25.30;44.00;;;;;;8463072;28;20340;-41
2022/06/25 01:37:10;;;;;;;;;;;25.30;44.00;;;;;;8462649;28;19918;-41
2022/06/25 01:41:11;;;;;;;;;;;25.30;44.00;;;;;;8462069;28;20316;-41
2022/06/25 01:45:12;;;;;;;;;;;25.30;44.00;;;;;;8462720;28;20371;-41
2022/06/25 01:49:12;;;;;;;;;;;25.30;44.00;;;;;;8462823;28;20319;-41
2022/06/25 01:53:13;;;;;;;;;;;25.30;44.00;;;;;;8462219;28;19914;-39
2022/06/25 01:57:13;;;;;;;;;;;25.30;44.00;;;;;;8462230;28;19912;-39
2022/06/25 02:01:13;;;;;;;;;;;25.20;44.00;;;;;;8445912;28;19962;-40
2022/06/25 02:05:15;;;;;;;;;;;25.20;44.00;;;;;;8461904;28;19911;-40
2022/06/25 02:09:15;;;;;;;;;;;25.20;44.00;;;;;;8466618;28;19999;-40
2022/06/25 02:13:16;;;;;;;;;;;25.20;44.00;;;;;;8467978;27;20276;-40
2022/06/25 02:17:16;;;;;;;;;;;25.20;44.00;;;;;;8468524;28;20013;-40
2022/06/25 02:21:19;;;;;;;;;;;25.20;44.00;;;;;;8468097;28;19931;-40
2022/06/25 02:25:19;;;;;;;;;;;25.20;44.00;;;;;;8467601;27;19920;-40
2022/06/25 02:29:19;;;;;;;;;;;25.20;44.00;;;;;;8468083;28;20443;-40
2022/06/25 02:33:20;;;;;;;;;;;25.20;44.00;;;;;;8467699;27;19911;-40
2022/06/25 02:37:20;;;;;;;;;;;25.20;44.00;;;;;;8467115;28;19912;-40
2022/06/25 02:41:21;;;;;;;;;;;25.20;44.00;;;;;;8467618;28;20006;-40
2022/06/25 02:45:21;;;;;;;;;;;25.20;44.00;;;;;;8467462;28;19912;-40
2022/06/25 02:49:22;;;;;;;;;;;25.20;44.00;;;;;;8466880;28;19908;-40
2022/06/25 02:53:22;;;;;;;;;;;25.20;44.00;;;;;;8467212;28;19911;-40
2022/06/25 03:01:41;;;;;;;;;;;25.10;43.90;;;;;;8466548;27;19943;-40
2022/06/25 03:05:42;;;;;;;;;;;25.20;44.00;;;;;;8466668;28;20002;-40
2022/06/25 03:09:42;;;;;;;;;;;25.10;44.00;;;;;;8466693;28;19907;-40
2022/06/25 03:13:43;;;;;;;;;;;25.10;43.90;;;;;;8466400;28;20279;-40
2022/06/25 03:17:43;;;;;;;;;;;25.10;43.90;;;;;;8466496;28;19912;-40
2022/06/25 03:21:45;;;;;;;;;;;25.10;44.00;;;;;;8465413;28;19919;-40
2022/06/25 03:25:46;;;;;;;;;;;25.10;44.00;;;;;;8464423;28;19923;-40
2022/06/25 03:29:47;;;;;;;;;;;25.10;44.00;;;;;;8466360;28;19908;-40
2022/06/25 03:33:47;;;;;;;;;;;25.10;43.90;;;;;;8465794;28;19919;-40
2022/06/25 03:37:48;;;;;;;;;;;25.00;43.90;;;;;;8465140;28;20330;-40
2022/06/25 03:41:48;;;;;;;;;;;25.10;44.00;;;;;;8465236;28;19931;-40
2022/06/25 03:45:48;;;;;;;;;;;25.00;43.90;;;;;;8465212;28;20295;-40
2022/06/25 03:49:49;;;;;;;;;;;25.10;43.90;;;;;;8464808;28;20023;-41
2022/06/25 03:53:49;;;;;;;;;;;25.00;43.90;;;;;;8465183;28;19916;-41
2022/06/25 03:57:50;;;;;;;;;;;25.00;43.90;;;;;;8464814;28;19964;-40
2022/06/25 04:01:50;;;;;;;;;;;25.00;43.90;;;;;;8454704;28;20428;-41
2022/06/25 04:05:51;;;;;;;;;;;25.00;44.50;;;;;;8438182;28;19907;-41
2022/06/25 04:09:51;;;;;;;;;;;25.00;43.90;;;;;;8464960;28;19919;-41
2022/06/25 04:13:52;;;;;;;;;;;25.00;43.90;;;;;;8464175;28;20003;-41
2022/06/25 04:17:52;;;;;;;;;;;25.00;43.90;;;;;;8464461;28;19964;-41
2022/06/25 04:21:53;;;;;;;;;;;25.00;43.90;;;;;;8464337;28;19919;-41
2022/06/25 04:25:54;;;;;;;;;;;25.00;43.90;;;;;;8463397;28;19937;-40
2022/06/25 04:29:54;;;;;;;;;;;25.00;43.90;;;;;;8464369;28;19953;-41
2022/06/25 04:33:55;;;;;;;;;;;25.00;43.90;;;;;;8464118;28;19918;-40
2022/06/25 04:37:55;;;;;;;;;;;25.00;43.90;;;;;;8463300;28;19940;-41
2022/06/25 04:41:56;;;;;;;;;;;25.00;43.90;;;;;;8463488;28;20288;-41
2022/06/25 04:45:56;;;;;;;;;;;24.90;43.80;;;;;;8463535;28;20403;-41
2022/06/25 04:49:56;;;;;;;;;;;24.90;43.80;;;;;;8463159;27;19908;-41
2022/06/25 04:53:57;;;;;;;;;;;24.90;43.80;;;;;;8463336;28;19969;-41
2022/06/25 04:57:57;;;;;;;;;;;24.90;43.80;;;;;;8463132;28;19961;-41
2022/06/25 05:01:58;;;;;;;;;;;24.90;43.80;;;;;;8462683;28;20079;-41
2022/06/25 05:05:58;;;;;;;;;;;24.90;43.80;;;;;;8463502;28;19916;-41
2022/06/25 05:09:59;;;;;;;;;;;24.90;43.80;;;;;;8463495;28;19918;-41
2022/06/25 05:13:59;;;;;;;;;;;24.90;43.80;;;;;;8462684;28;20382;-41
2022/06/25 05:18:00;;;;;;;;;;;24.90;43.80;;;;;;8463078;28;19986;-41
2022/06/25 05:22:00;;;;;;;;;;;24.90;43.80;;;;;;8462791;28;19926;-41
2022/06/25 05:26:01;;;;;;;;;;;24.90;43.80;;;;;;8462449;28;19938;-41
2022/06/25 05:30:02;;;;;;;;;;;24.90;43.80;;;;;;8462983;28;19907;-41
2022/06/25 05:34:03;;;;;;;;;;;24.90;43.80;;;;;;8462748;28;19911;-41
2022/06/25 05:38:03;;;;;;;;;;;24.90;43.80;;;;;;8462541;28;19912;-41
2022/06/25 05:42:04;;;;;;;;;;;24.90;43.80;;;;;;8463378;28;20376;-40
2022/06/25 05:46:05;;;;;;;;;;;24.90;43.80;;;;;;8469119;28;19965;-40
2022/06/25 05:50:06;;;;;;;;;;;24.90;43.80;;;;;;8468703;28;19907;-40
2022/06/25 05:54:06;;;;;;;;;;;24.90;43.80;;;;;;8468843;28;20303;-40
2022/06/25 05:58:07;;;;;;;;;;;24.90;43.80;;;;;;8468655;28;19912;-40
2022/06/25 06:02:07;;;;;;;;;;;24.90;43.80;;;;;;8467983;28;20385;-40
2022/06/25 06:06:08;;;;;;;;;;;24.90;43.80;;;;;;8468215;28;19968;-40
2022/06/25 06:10:08;;;;;;;;;;;24.90;43.80;;;;;;8468735;28;20331;-40
2022/06/25 06:14:09;;;;;;;;;;;24.90;43.80;;;;;;8467662;28;19922;-41
2022/06/25 06:18:09;;;;;;;;;;;24.90;43.70;;;;;;8468032;28;20372;-41
2022/06/25 06:22:10;;;;;;;;;;;24.90;43.80;;;;;;8467747;28;20014;-41
2022/06/25 06:26:10;;;;;;;;;;;24.90;43.70;;;;;;8467336;28;19916;-41
2022/06/25 06:30:11;;;;;;;;;;;24.90;43.70;;;;;;8467937;28;19912;-41
2022/06/25 06:34:11;;;;;;;;;;;24.90;43.70;;;;;;8467634;28;19950;-41
2022/06/25 06:38:11;;;;;;;;;;;24.90;43.70;;;;;;8467073;28;19916;-41
2022/06/25 06:42:12;;;;;;;;;;;24.90;43.80;;;;;;8467154;28;19920;-41
2022/06/25 06:46:13;;;;;;;;;;;24.90;43.70;;;;;;8467362;28;20359;-41
2022/06/25 06:50:14;;;;;;;;;;;24.90;43.70;;;;;;8467059;28;20321;-41
2022/06/25 06:54:14;;;;;;;;;;;24.90;43.70;;;;;;8467535;28;19930;-41
2022/06/25 06:58:15;;;;;;;;;;;24.90;43.70;;;;;;8466299;28;20292;-41
2022/06/25 07:02:15;;;;;;;;;;;24.90;43.70;;;;;;8466722;28;19954;-41
2022/06/25 07:06:16;;;;;;;;;;;24.90;43.70;;;;;;8437119;28;19970;-41
2022/06/25 07:10:16;;;;;;;;;;;25.00;43.70;;;;;;8466479;28;20364;-41
2022/06/25 07:14:17;;;;;;;;;;;25.00;43.70;;;;;;8466610;28;19915;-41
2022/06/25 07:18:17;;;;;;;;;;;25.00;44.30;;;;;;8466457;28;19912;-41
2022/06/25 07:22:18;;;;;;;;;;;25.00;43.70;;;;;;8465710;28;19963;-40
2022/06/25 07:26:19;;;;;;;;;;;25.00;43.70;;;;;;8466258;28;20127;-41
2022/06/25 07:30:19;;;;;;;;;;;25.00;43.70;;;;;;8466032;28;19916;-41
2022/06/25 07:34:19;;;;;;;;;;;25.00;43.70;;;;;;8465432;28;20413;-41
2022/06/25 07:38:20;;;;;;;;;;;25.00;43.70;;;;;;8465519;28;19922;-41
2022/06/25 07:42:20;;;;;;;;;;;25.00;43.70;;;;;;8465752;28;20284;-41
2022/06/25 07:46:21;;;;;;;;;;;25.00;43.60;;;;;;8465115;28;19916;-41
2022/06/25 07:54:41;;;;;;;;;;;25.10;43.70;;;;;;8469655;28;20450;-41
2022/06/25 07:58:41;;;;;;;;;;;25.10;43.60;;;;;;8464513;27;19915;-41
2022/06/25 08:02:42;;;;;;;;;;;25.10;43.60;;;;;;8464959;28;19990;-41
2022/06/25 08:06:43;;;;;;;;;;;25.10;43.50;;;;;;8464067;28;19959;-40
2022/06/25 08:10:43;;;;;;;;;;;25.10;43.50;;;;;;8464467;28;19915;-41
2022/06/25 08:14:44;;;;;;;;;;;25.20;43.60;;;;;;8464367;28;20408;-41
2022/06/25 08:18:44;;;;;;;;;;;25.20;43.60;;;;;;8464453;27;19911;-41
2022/06/25 08:22:44;;;;;;;;;;;25.20;43.60;;;;;;8463901;28;19911;-41
2022/06/25 08:26:45;;;;;;;;;;;25.20;43.60;;;;;;8463798;28;20022;-40
2022/06/25 08:30:45;;;;;;;;;;;25.20;43.50;;;;;;8462736;28;19911;-40
2022/06/25 08:34:46;;;;;;;;;;;25.20;43.60;;;;;;8462127;28;19943;-40
2022/06/25 08:38:46;;;;;;;;;;;25.20;43.90;;;;;;8462653;28;20390;-40
2022/06/25 08:42:48;;;;;;;;;;;25.30;43.60;;;;;;8462449;28;19939;-41
2022/06/25 08:46:49;;;;;;;;;;;25.30;43.60;;;;;;8462310;28;20417;-41
2022/06/25 08:50:50;;;;;;;;;;;25.30;43.60;;;;;;8462569;28;20291;-41
2022/06/25 08:54:50;;;;;;;;;;;25.30;43.60;;;;;;8462296;28;19923;-41
2022/06/25 08:58:51;;;;;;;;;;;25.30;43.60;;;;;;8461908;28;20383;-41
2022/06/25 09:02:51;;;;;;;;;;;25.30;43.60;;;;;;8462221;28;19912;-41
2022/06/25 09:07:11;;;;;;;;;;;25.30;43.60;;;;;;8462149;28;20345;-41
2022/06/25 09:11:12;;;;;;;;;;;25.40;43.70;;;;;;8428437;28;19918;-41
2022/06/25 09:15:19;;;;;;;;;;;25.40;43.60;;;;;;8454749;28;20261;-41
2022/06/25 09:19:26;;;;;;;;;;;25.40;44.20;;;;;;8465641;28;20296;-41
2022/06/25 09:23:27;;;;;;;;;;;25.40;43.60;;;;;;8468576;28;20367;-41
2022/06/25 09:27:35;;;;;;;;;;;25.40;43.60;;;;;;8433062;28;1034399;-41
2022/06/25 09:31:37;;;;;;;;;;;25.40;43.60;;;;;;8469812;27;19911;-41
2022/06/25 09:35:38;;;;;;;;;;;25.40;43.60;;;;;;8470316;28;20291;-41
2022/06/25 09:39:39;;;;;;;;;;;25.40;43.60;;;;;;8469794;28;19959;-41
2022/06/25 09:43:41;;;;;;;;;;;25.50;43.60;;;;;;8469406;27;19911;-40
2022/06/25 09:47:43;;;;;;;;;;;25.50;43.60;;;;;;8469917;27;19914;-40
2022/06/25 09:51:44;;;;;;;;;;;25.50;43.60;;;;;;8469906;27;19934;-40
2022/06/25 09:55:44;;;;;;;;;;;25.50;43.60;;;;;;8469418;28;19918;-40
2022/06/25 09:59:48;;;;;;;;;;;25.50;43.50;;;;;;8470697;27;19920;-40
2022/06/25 10:03:49;;;;;;;;;;;25.60;43.50;;;;;;8469928;28;20095;-40
2022/06/25 10:07:59;;;;;;;;;;;25.60;43.50;;;;;;8440935;27;19923;-41
2022/06/25 10:12:00;;;;;;;;;;;25.60;43.50;;;;;;8470538;28;19911;-41
2022/06/25 10:16:01;;;;;;;;;;;25.60;44.00;;;;;;8469659;28;19916;-41
2022/06/25 10:20:02;;;;;;;;;;;25.60;43.40;;;;;;8469041;27;20368;-41
2022/06/25 10:24:04;;;;;;;;;;;25.70;43.40;;;;;;8469534;28;19912;-41
2022/06/25 10:28:15;;;;;;;;;;;25.70;43.40;;;;;;8469047;28;20395;-42
2022/06/25 10:32:17;;;;;;;;;;;25.70;43.40;;;;;;8468650;28;19938;-41
2022/06/25 10:36:17;;;;;;;;;;;25.70;43.40;;;;;;8468267;28;20315;-41
2022/06/25 10:40:18;;;;;;;;;;;25.70;43.30;;;;;;8467641;28;19949;-41
2022/06/25 10:44:19;;;;;;;;;;;25.80;43.30;;;;;;8468128;28;20305;-41
2022/06/25 10:48:22;;;;;;;;;;;25.80;43.30;;;;;;8468023;27;19915;-41
2022/06/25 10:52:23;;;;;;;;;;;25.80;43.30;;;;;;8467424;28;19915;-41
2022/06/25 10:56:23;;;;;;;;;;;25.80;43.20;;;;;;8467571;28;20249;-41
2022/06/25 11:00:24;;;;;;;;;;;25.90;43.30;;;;;;8467433;28;19924;-41
2022/06/25 11:04:28;;;;;;;;;;;25.90;43.20;;;;;;8467664;28;20292;-41
2022/06/25 11:08:35;;;;;;;;;;;25.90;43.20;;;;;;8467577;28;19912;-41
2022/06/25 11:12:36;;;;;;;;;;;25.90;43.10;;;;;;8467710;28;19908;-41
2022/06/25 11:16:36;;;;;;;;;;;25.90;43.10;;;;;;8466644;28;19911;-41
2022/06/25 11:20:37;;;;;;;;;;;26.00;43.20;;;;;;8466362;28;19919;-42
2022/06/25 11:28:47;;;;;;;;;;;26.00;43.10;;;;;;8466164;28;19921;-41
2022/06/25 11:28:58;;;;;;;;;;;26.00;43.10;;;;;;8465529;28;19911;-42
2022/06/25 11:32:59;;;;;;;;;;;26.00;43.00;;;;;;8466457;28;19912;-44
2022/06/25 11:37:09;;;;;;;;;;;26.10;43.00;;;;;;8465617;27;20019;-41
2022/06/25 11:41:19;;;;;;;;;;;26.10;43.00;;;;;;8464634;28;20403;-41
2022/06/25 11:45:20;;;;;;;;;;;26.10;43.00;;;;;;8465552;28;20368;-41
2022/06/25 11:49:22;;;;;;;;;;;26.10;42.90;;;;;;8464635;28;19918;-41
2022/06/25 11:53:22;;;;;;;;;;;26.20;42.90;;;;;;8465368;28;20331;-41
2022/06/25 11:57:23;;;;;;;;;;;26.20;42.90;;;;;;8465120;28;19908;-41
2022/06/25 12:01:30;;;;;;;;;;;26.20;42.90;;;;;;8464095;28;19973;-41
2022/06/25 12:05:32;;;;;;;;;;;26.20;42.90;;;;;;8464719;28;19911;-41
2022/06/25 12:09:33;;;;;;;;;;;26.20;42.90;;;;;;8464723;28;19918;-41
2022/06/25 12:13:33;;;;;;;;;;;26.20;42.90;;;;;;8464277;28;20280;-41
2022/06/25 12:17:34;;;;;;;;;;;26.20;42.80;;;;;;8465099;28;19981;-41
2022/06/25 12:21:35;;;;;;;;;;;26.20;42.80;;;;;;8464461;28;20378;-41
2022/06/25 12:25:35;;;;;;;;;;;26.20;42.80;;;;;;8464008;28;19915;-42
2022/06/25 12:29:36;;;;;;;;;;;26.30;42.80;;;;;;8464023;28;19915;-42
2022/06/25 12:33:36;;;;;;;;;;;26.30;42.80;;;;;;8464102;28;20391;-41
2022/06/25 12:37:37;;;;;;;;;;;26.30;42.70;;;;;;8463838;28;20364;-42
2022/06/25 12:41:47;;;;;;;;;;;26.30;42.70;;;;;;8463812;28;19919;-41
2022/06/25 12:45:48;;;;;;;;;;;26.40;42.70;;;;;;8463952;28;19915;-41
2022/06/25 12:49:50;;;;;;;;;;;26.40;42.60;;;;;;8463363;28;20008;-41
2022/06/25 12:53:54;;;;;;;;;;;26.40;42.70;;;;;;8463700;28;19958;-41
2022/06/25 12:57:55;;;;;;;;;;;26.40;42.60;;;;;;8463830;28;19908;-41
2022/06/25 13:01:55;;;;;;;;;;;26.50;43.20;;;;;;8463048;28;19919;-41
2022/06/25 13:05:56;;;;;;;;;;;26.50;42.60;;;;;;8462124;28;20045;-41
2022/06/25 13:09:56;;;;;;;;;;;26.50;42.60;;;;;;8463470;28;20388;-41
2022/06/25 13:13:57;;;;;;;;;;;26.50;42.60;;;;;;8462958;28;19994;-40
2022/06/25 13:17:57;;;;;;;;;;;26.50;42.60;;;;;;8463749;28;19907;-40
2022/06/25 13:21:58;;;;;;;;;;;26.50;42.60;;;;;;8463390;28;19927;-42
2022/06/25 13:25:59;;;;;;;;;;;26.50;42.60;;;;;;8462959;28;20006;-42
2022/06/25 13:29:59;;;;;;;;;;;26.50;42.60;;;;;;8463089;28;19912;-41
2022/06/25 13:34:00;;;;;;;;;;;26.50;42.60;;;;;;8463226;28;19915;-42
2022/06/25 13:38:00;;;;;;;;;;;26.60;42.60;;;;;;8462671;28;20019;-42
2022/06/25 13:42:01;;;;;;;;;;;26.60;42.60;;;;;;8462642;28;20322;-42
2022/06/25 13:46:01;;;;;;;;;;;26.60;42.60;;;;;;8462384;28;19958;-42
2022/06/25 13:50:02;;;;;;;;;;;26.60;42.50;;;;;;8462209;28;19972;-40
2022/06/25 13:54:03;;;;;;;;;;;26.60;42.60;;;;;;8462987;28;20425;-40
2022/06/25 13:58:03;;;;;;;;;;;26.60;42.50;;;;;;8462845;28;19916;-40
2022/06/25 14:02:07;;;;;;;;;;;26.70;42.60;;;;;;8461944;28;19920;-41
2022/06/25 14:06:07;;;;;;;;;;;26.70;42.60;;;;;;8468258;28;20003;-41
2022/06/25 14:10:10;;;;;;;;;;;26.70;42.60;;;;;;8468571;28;20361;-41
2022/06/25 14:14:11;;;;;;;;;;;26.70;42.50;;;;;;8468081;28;20322;-41
2022/06/25 14:18:11;;;;;;;;;;;26.70;42.50;;;;;;8468593;28;19941;-41
2022/06/25 14:22:11;;;;;;;;;;;26.70;42.50;;;;;;8468370;28;20280;-41
2022/06/25 14:26:12;;;;;;;;;;;26.70;42.50;;;;;;8467877;28;19920;-41
2022/06/25 14:30:13;;;;;;;;;;;26.70;42.50;;;;;;8468173;27;19911;-41
2022/06/25 14:34:14;;;;;;;;;;;26.70;42.50;;;;;;8467873;28;19916;-41
2022/06/25 14:42:33;;;;;;;;;;;26.80;42.50;;;;;;8462636;28;19927;-41
2022/06/25 14:46:34;;;;;;;;;;;26.80;42.50;;;;;;8467061;28;19908;-41
2022/06/25 14:50:35;;;;;;;;;;;26.80;42.50;;;;;;8467301;28;19908;-40
2022/06/25 14:54:36;;;;;;;;;;;26.80;42.50;;;;;;8467434;28;19912;-40
2022/06/25 14:58:36;;;;;;;;;;;26.80;42.50;;;;;;8466995;28;19915;-40
2022/06/25 15:02:37;;;;;;;;;;;26.80;42.40;;;;;;8466838;28;19920;-41
2022/06/25 15:06:37;;;;;;;;;;;26.80;42.40;;;;;;8466800;28;20340;-40
2022/06/25 15:10:38;;;;;;;;;;;26.80;42.40;;;;;;8466305;27;20037;-40
2022/06/25 15:14:38;;;;;;;;;;;26.80;42.40;;;;;;8465519;28;20433;-41
2022/06/25 15:18:38;;;;;;;;;;;26.80;42.40;;;;;;8466603;28;19937;-40
2022/06/25 15:22:39;;;;;;;;;;;26.90;42.40;;;;;;8466011;28;19915;-41
2022/06/25 15:26:39;;;;;;;;;;;26.80;42.40;;;;;;8466337;28;19927;-40
2022/06/25 15:30:40;;;;;;;;;;;26.90;42.40;;;;;;8466090;28;19994;-40
2022/06/25 15:34:41;;;;;;;;;;;26.90;42.30;;;;;;8465482;28;19916;-40
2022/06/25 15:38:42;;;;;;;;;;;26.90;42.30;;;;;;8466074;28;19956;-40
2022/06/25 15:42:42;;;;;;;;;;;26.90;42.30;;;;;;8465877;28;19967;-40
2022/06/25 15:46:43;;;;;;;;;;;26.90;42.30;;;;;;8465068;28;19911;-40
2022/06/25 15:50:43;;;;;;;;;;;26.90;42.20;;;;;;8465581;28;19908;-40
2022/06/25 15:54:44;;;;;;;;;;;26.90;42.30;;;;;;8465548;28;19911;-41
2022/06/25 16:03:03;;;;;;;;;;;26.90;42.30;;;;;;8466092;28;19950;-42
2022/06/25 16:07:04;;;;;;;;;;;26.90;42.20;;;;;;8463518;28;20265;-42
2022/06/25 16:15:24;;;;;;;;;;;26.90;42.20;;;;;;8469906;28;20395;-42
2022/06/25 16:19:25;;;;;;;;;;;26.90;42.20;;;;;;8464328;28;19915;-42
2022/06/25 16:23:25;;;;;;;;;;;26.90;42.20;;;;;;8464837;28;20332;-41
2022/06/25 16:27:25;;;;;;;;;;;26.90;42.20;;;;;;8463829;28;19916;-42
2022/06/25 16:31:26;;;;;;;;;;;26.90;42.10;;;;;;8463849;28;19915;-41
2022/06/25 16:35:27;;;;;;;;;;;26.90;42.10;;;;;;8464161;28;19907;-41
2022/06/25 16:39:27;;;;;;;;;;;26.90;42.20;;;;;;8464035;28;19927;-41
2022/06/25 16:48:07;;;;;;;;;;;26.90;42.20;;;;;;8393358;28;19954;-41
2022/06/25 16:52:08;;;;;;;;;;;26.90;42.20;;;;;;8410090;28;20258;-41
2022/06/25 16:56:08;;;;;;;;;;;26.90;42.20;;;;;;8437791;28;19943;-41
2022/06/25 17:00:09;;;;;;;;;;;26.90;42.20;;;;;;8463789;28;19916;-41
2022/06/25 17:04:10;;;;;;;;;;;26.90;42.20;;;;;;8463438;28;19916;-41
2022/06/25 17:08:11;;;;;;;;;;;26.90;42.20;;;;;;8462826;28;20291;-41
2022/06/25 17:12:11;;;;;;;;;;;26.90;42.20;;;;;;8463514;28;19943;-41
2022/06/25 17:16:14;;;;;;;;;;;26.90;42.20;;;;;;8463327;28;20337;-41
2022/06/25 17:20:15;;;;;;;;;;;26.90;42.20;;;;;;8462966;28;19923;-41
2022/06/25 17:24:15;;;;;;;;;;;26.80;42.10;;;;;;8463200;28;19912;-41
2022/06/25 17:28:16;;;;;;;;;;;26.90;42.20;;;;;;8462520;28;20311;-41
2022/06/25 17:32:16;;;;;;;;;;;26.80;42.10;;;;;;8463389;28;19919;-41
2022/06/25 17:36:17;;;;;;;;;;;26.80;42.10;;;;;;8462943;28;20292;-41
2022/06/25 17:40:17;;;;;;;;;;;26.80;42.10;;;;;;8467325;28;19930;-41
2022/06/25 17:44:18;;;;;;;;;;;26.80;42.10;;;;;;8469583;28;19915;-41
2022/06/25 17:48:18;;;;;;;;;;;26.80;42.10;;;;;;8469434;28;20399;-41
2022/06/25 17:52:18;;;;;;;;;;;26.80;42.10;;;;;;8468888;28;19918;-41
2022/06/25 17:56:19;;;;;;;;;;;26.80;42.20;;;;;;8469449;28;19918;-42
2022/06/25 18:00:21;;;;;;;;;;;26.80;42.10;;;;;;8469685;28;19919;-42
2022/06/25 18:04:21;;;;;;;;;;;26.80;42.20;;;;;;8468492;27;20364;-41
2022/06/25 18:08:22;;;;;;;;;;;26.80;42.20;;;;;;8468799;27;19937;-41
2022/06/25 18:12:22;;;;;;;;;;;26.80;42.20;;;;;;8468627;28;19912;-41
2022/06/25 18:16:23;;;;;;;;;;;26.80;42.20;;;;;;8468228;28;20417;-41
2022/06/25 18:20:24;;;;;;;;;;;26.80;42.80;;;;;;8468496;28;20021;-41
2022/06/25 18:24:24;;;;;;;;;;;26.80;42.20;;;;;;8468261;28;20364;-41
2022/06/25 18:28:25;;;;;;;;;;;26.80;42.30;;;;;;8467806;28;19915;-41
2022/06/25 18:32:26;;;;;;;;;;;26.70;42.20;;;;;;8468381;27;19918;-41
2022/06/25 18:36:27;;;;;;;;;;;26.80;42.20;;;;;;8468098;27;19912;-41
2022/06/25 18:40:28;;;;;;;;;;;26.80;42.20;;;;;;8467693;28;19919;-41
2022/06/25 18:44:29;;;;;;;;;;;26.80;42.20;;;;;;8468318;28;19942;-42
2022/06/25 18:48:30;;;;;;;;;;;26.70;42.20;;;;;;8467273;28;19957;-41
2022/06/25 18:52:30;;;;;;;;;;;26.70;42.10;;;;;;8466908;28;20003;-41
2022/06/25 18:56:31;;;;;;;;;;;26.70;42.10;;;;;;8467116;28;19912;-41
2022/06/25 19:00:31;;;;;;;;;;;26.70;42.10;;;;;;8467312;28;19994;-41
2022/06/25 19:04:32;;;;;;;;;;;26.70;42.20;;;;;;8465608;28;20368;-41
2022/06/25 19:08:35;;;;;;;;;;;26.70;42.20;;;;;;8466854;28;19911;-42
2022/06/25 19:12:35;;;;;;;;;;;26.70;42.20;;;;;;8466838;27;19919;-42
2022/06/25 19:16:36;;;;;;;;;;;26.70;42.10;;;;;;8466265;28;20353;-42
2022/06/25 19:20:37;;;;;;;;;;;26.60;42.10;;;;;;8466544;28;19937;-42
2022/06/25 19:24:37;;;;;;;;;;;26.70;42.10;;;;;;8466251;28;19941;-42
2022/06/25 19:28:38;;;;;;;;;;;26.60;42.10;;;;;;8465843;28;20232;-41
2022/06/25 19:32:38;;;;;;;;;;;26.60;42.10;;;;;;8466494;28;19991;-41
2022/06/25 19:36:40;;;;;;;;;;;26.60;42.10;;;;;;8466023;28;19912;-41
2022/06/25 19:40:40;;;;;;;;;;;26.60;42.10;;;;;;8465642;28;19916;-40
2022/06/25 19:44:41;;;;;;;;;;;26.60;42.20;;;;;;8465585;28;19951;-41
2022/06/25 19:48:41;;;;;;;;;;;26.60;42.10;;;;;;8465697;28;19911;-41
2022/06/25 19:52:42;;;;;;;;;;;26.60;42.10;;;;;;8464931;28;19911;-41
2022/06/25 19:56:42;;;;;;;;;;;26.60;42.20;;;;;;8465345;28;19919;-40
2022/06/25 20:00:43;;;;;;;;;;;26.60;42.10;;;;;;8464711;28;19943;-40
2022/06/25 20:04:43;;;;;;;;;;;26.60;42.10;;;;;;8464517;28;19919;-41
2022/06/25 20:08:44;;;;;;;;;;;26.60;42.20;;;;;;8464998;28;19934;-41
2022/06/25 20:12:44;;;;;;;;;;;26.50;42.10;;;;;;8464761;28;20397;-41
2022/06/25 20:16:49;;;;;;;;;;;26.60;42.20;;;;;;8464153;28;20291;-41
2022/06/25 20:20:49;;;;;;;;;;;26.50;42.10;;;;;;8464942;28;19919;-41
2022/06/25 20:24:50;;;;;;;;;;;26.50;42.10;;;;;;8464393;28;19955;-41
2022/06/25 20:28:50;;;;;;;;;;;26.50;42.10;;;;;;8463990;28;20294;-41
2022/06/25 20:32:51;;;;;;;;;;;26.50;42.10;;;;;;8464212;28;19912;-41
2022/06/25 20:36:51;;;;;;;;;;;26.50;42.10;;;;;;8464326;28;19908;-41
2022/06/25 20:40:52;;;;;;;;;;;26.50;42.10;;;;;;8463719;28;19916;-41
2022/06/25 20:44:53;;;;;;;;;;;26.50;42.10;;;;;;8464142;28;19912;-40
2022/06/25 20:48:53;;;;;;;;;;;26.50;42.10;;;;;;8463850;28;19952;-41
2022/06/25 20:52:54;;;;;;;;;;;26.50;42.10;;;;;;8463107;28;19912;-42
2022/06/25 20:56:54;;;;;;;;;;;26.50;42.10;;;;;;8463595;28;19915;-41
2022/06/25 21:00:55;;;;;;;;;;;26.50;42.10;;;;;;8463668;28;20296;-41
2022/06/25 21:09:14;;;;;;;;;;;26.50;42.10;;;;;;8466576;28;19998;-41
2022/06/25 21:13:15;;;;;;;;;;;26.50;42.10;;;;;;8466433;28;20210;-40
2022/06/25 21:17:16;;;;;;;;;;;26.50;42.10;;;;;;8470341;27;19920;-40
2022/06/25 21:21:16;;;;;;;;;;;26.50;42.10;;;;;;8470643;28;20006;-41
2022/06/25 21:25:17;;;;;;;;;;;26.50;42.10;;;;;;8470014;27;20255;-40
2022/06/25 21:29:17;;;;;;;;;;;26.50;42.10;;;;;;8470438;28;20010;-40
2022/06/25 21:33:17;;;;;;;;;;;26.50;42.10;;;;;;8469927;28;19922;-40
2022/06/25 21:37:18;;;;;;;;;;;26.50;42.10;;;;;;8469416;28;19918;-40
2022/06/25 21:41:18;;;;;;;;;;;26.50;42.10;;;;;;8470227;28;19919;-41
2022/06/25 21:45:19;;;;;;;;;;;26.40;42.10;;;;;;8469579;28;20364;-41
2022/06/25 21:49:19;;;;;;;;;;;26.40;42.10;;;;;;8469045;27;19911;-42
2022/06/25 21:53:20;;;;;;;;;;;26.40;42.10;;;;;;8469269;28;20356;-41
2022/06/25 21:57:20;;;;;;;;;;;26.40;42.10;;;;;;8469347;28;19919;-40
2022/06/25 22:01:21;;;;;;;;;;;26.40;42.10;;;;;;8468016;27;19927;-40
2022/06/25 22:05:21;;;;;;;;;;;26.40;42.10;;;;;;8468218;28;20364;-40
2022/06/25 22:09:22;;;;;;;;;;;26.40;42.10;;;;;;8468868;28;19912;-39
2022/06/25 22:13:22;;;;;;;;;;;26.40;42.10;;;;;;8468269;28;20265;-41
2022/06/25 22:17:22;;;;;;;;;;;26.40;42.20;;;;;;8468511;28;19907;-40
2022/06/25 22:21:23;;;;;;;;;;;26.40;42.10;;;;;;8468723;27;19994;-41
2022/06/25 22:25:23;;;;;;;;;;;26.40;42.10;;;;;;8467133;28;19929;-40
2022/06/25 22:29:24;;;;;;;;;;;26.40;42.10;;;;;;8468212;28;19912;-40
2022/06/25 22:33:25;;;;;;;;;;;26.30;42.00;;;;;;8468064;28;20048;-41
2022/06/25 22:37:25;;;;;;;;;;;26.30;42.00;;;;;;8467769;27;19929;-41
2022/06/25 22:41:26;;;;;;;;;;;26.30;42.00;;;;;;8467717;28;19923;-41
2022/06/25 22:45:27;;;;;;;;;;;26.30;42.00;;;;;;8467879;28;19964;-42
2022/06/25 22:49:28;;;;;;;;;;;26.30;42.10;;;;;;8467209;28;19912;-42
2022/06/25 22:53:28;;;;;;;;;;;26.30;42.10;;;;;;8467759;27;19916;-42
2022/06/25 22:57:29;;;;;;;;;;;26.30;42.60;;;;;;8467621;28;19907;-41
2022/06/25 23:01:29;;;;;;;;;;;26.30;42.10;;;;;;8466764;27;19920;-42
2022/06/25 23:05:30;;;;;;;;;;;26.30;42.10;;;;;;8467088;28;19916;-41
2022/06/25 23:09:30;;;;;;;;;;;26.30;42.20;;;;;;8467007;28;19920;-41
2022/06/25 23:13:31;;;;;;;;;;;26.30;42.20;;;;;;8466627;28;19916;-41
2022/06/25 23:17:31;;;;;;;;;;;26.20;42.20;;;;;;8466992;27;19908;-41
2022/06/25 23:21:31;;;;;;;;;;;26.20;42.30;;;;;;8466476;27;19920;-41
2022/06/25 23:25:32;;;;;;;;;;;26.20;42.30;;;;;;8466174;28;20349;-41
2022/06/25 23:29:33;;;;;;;;;;;26.20;42.40;;;;;;8466347;28;20003;-41
2022/06/25 23:33:33;;;;;;;;;;;26.20;42.40;;;;;;8466555;28;20019;-41
2022/06/25 23:37:33;;;;;;;;;;;26.20;42.50;;;;;;8464864;28;19908;-40
2022/06/25 23:41:34;;;;;;;;;;;26.20;42.50;;;;;;8466028;27;20287;-41
2022/06/25 23:45:34;;;;;;;;;;;26.20;42.50;;;;;;8465882;28;19911;-41
2022/06/25 23:49:35;;;;;;;;;;;26.20;42.50;;;;;;8465264;28;20010;-41
2022/06/25 23:53:35;;;;;;;;;;;26.20;42.60;;;;;;8465968;28;19911;-40